Airfield :
LOGIN :

Register | Disclaimer

   EN    FR    IT 

 










Legend :    VFR   Marginal VFR   IFR   Intensive IFR   Very Intensive IFR
Visi :
Ceiling :
>= 8 km
>= 3000ft
5 to 8 km
1000 to 3000 ft
1500m to 5 km
500 to 1000 ft
800 to 1500m
200 to 500 ft
< 800m
< 200 ft
Symbols :   Thunderstorms  Fog  Heavy snow  Heavy precipitations  Wind > 20 kt
SIGMETs :     Misc.  Thunderstorms  Icing  Turbulence  Mountain Waves  Volcanic Ashes







- Airport Elevation : 121 ft
- IATA code : HUY
- Download approach charts


EGNJ - Humberside

CURRENT METAR :
  • 231520Z 26014KT 9999 FEW024 16/10 Q1025

EXPIRED METARs :
  • 231450Z 27013KT 9999 FEW023 16/10 Q1026
  • 231420Z 27018KT 9999 FEW023 16/10 Q1025
  • 231350Z 27019G29KT 9999 FEW023 16/10 Q1026
  • 231320Z 27018KT 9999 FEW030 16/10 Q1026
  • 231250Z 27018KT 9999 FEW024 16/10 Q1026

TAF TAF EGNJ
Valid from the 23 at 15:00 until the 24 at 00:00 UTC


231401Z 2315/2324 26017KT 9999 SCT020
PROB30
TEMPO 2315/2321 28020G30KT
ATIS : +44 1652 682 020
No reported NOTAMs for that airfield.
2 SIGMETs reported for the London FIR (EGTT) :
 
Severe turbulence
EGTT SIGMET 08 VALID 231400/231800 EGRR
EGTT LONDON FIR SEV TURB FCST WI N5400 W00200 - N5500 W00300 - N5500 E00500 - N5400 E00409 - N5400 W00200 SFC/FL060 STNR WKN=
Severe mountain waves
EGTT SIGMET 07 VALID 231400/231800 EGRR
EGTT LONDON FIR SEV MTW FCST WI N5500 E00100 - N5400 E00045 - N5400 W00245 - N5500 W00530 - N5500 E00100 FL030/220 STNR NC=



MET'MAP, your aeronautical weather chart ! - Copyright ORBIFLY December 2007 - Disclaimer

ORBIFLY MET'MAP TEAM :

Programming & Development : Alexandra Zaïnal
Concept & Development : Baudouin d'Aumeries
Co-Development & Prog : Marc-Olivier Méhu
Technical & hardware support : Manuel Goepfert

Contact : metmap@orbifly.com




SOURCES & CREDITS :

   NOAA